Time;durP1;ratioP1;P1;durP2;ratioP2;P2;SDS_P1;SDS_P2;PMS_P1;PMS_P2;Temp;Humidity;BMP_temperature;BMP_pressure;BME280_temperature;BME280_humidity;BME280_pressure;Samples;Min_cycle;Max_cycle;Signal;HPM_P1;HPM_P2
2022/09/27 00:04:57;;;;;;;;;;;;;;;14.37;100.00;99318.72;10580617;28;19971;-76
2022/09/27 00:10:00;;;;;;;;;;;;;;;14.42;100.00;99314.16;10561866;28;19928;-75
2022/09/27 00:15:04;;;;;;;;;;;;;;;14.41;100.00;99307.22;10538062;28;20618;-75
2022/09/27 00:20:08;;;;;;;;;;;;;;;14.42;100.00;99301.09;10537019;28;19939;-65
2022/09/27 00:25:11;;;;;;;;;;;;;;;14.44;100.00;99304.50;10537332;28;19928;-76
2022/09/27 00:30:15;;;;;;;;;;;;;;;14.43;100.00;99296.69;10537427;28;19930;-71
2022/09/27 00:35:18;;;;;;;;;;;;;;;14.45;100.00;99287.91;10542491;28;20321;-75
2022/09/27 00:40:23;;;;;;;;;;;;;;;14.38;100.00;99290.81;10548050;28;19931;-72
2022/09/27 00:45:27;;;;;;;;;;;;;;;14.47;100.00;99282.59;10550793;28;19934;-75
2022/09/27 00:50:32;;;;;;;;;;;;;;;14.50;100.00;99272.03;10550480;28;19931;-78
2022/09/27 00:55:36;;;;;;;;;;;;;;;14.48;100.00;99271.28;10550219;28;19932;-72
2022/09/27 01:00:44;;;;;;;;;;;;;;;14.46;100.00;99268.69;10550131;28;19954;-69
2022/09/27 01:05:47;;;;;;;;;;;;;;;14.44;100.00;99254.03;10549886;28;20460;-74
2022/09/27 01:10:56;;;;;;;;;;;;;;;14.42;100.00;99253.25;10192006;28;9999656;-74
2022/09/27 01:16:05;;;;;;;;;;;;;;;14.44;100.00;99244.44;10543685;28;19938;-76
2022/09/27 01:21:29;;;;;;;;;;;;;;;14.47;100.00;99246.06;10543948;28;19924;-75
2022/09/27 01:26:44;;;;;;;;;;;;;;;14.38;100.00;99241.22;10543317;28;20356;-77
2022/09/27 01:31:51;;;;;;;;;;;;;;;14.29;100.00;99244.25;10543576;28;19924;-75
2022/09/27 01:36:58;;;;;;;;;;;;;;;14.19;100.00;99254.19;10543540;28;19935;-78
2022/09/27 01:42:04;;;;;;;;;;;;;;;14.20;100.00;99252.44;10542754;28;20295;-74
2022/09/27 01:47:12;;;;;;;;;;;;;;;14.20;100.00;99252.44;10542652;28;19936;-68
2022/09/27 01:52:18;;;;;;;;;;;;;;;14.20;100.00;99240.25;10541166;28;19927;-70
2022/09/27 01:57:24;;;;;;;;;;;;;;;14.18;100.00;99238.59;10541782;28;19927;-66
2022/09/27 02:02:30;;;;;;;;;;;;;;;14.23;100.00;99237.50;10541656;28;19928;-68
2022/09/27 02:07:37;;;;;;;;;;;;;;;14.24;100.00;99230.50;10553840;28;19938;-68
2022/09/27 02:12:42;;;;;;;;;;;;;;;14.27;100.00;99228.63;10585742;28;19930;-69
2022/09/27 02:17:52;;;;;;;;;;;;;;;14.22;100.00;99221.91;10584420;28;19928;-68
2022/09/27 02:22:59;;;;;;;;;;;;;;;14.23;100.00;99211.41;10583051;28;19938;-67
2022/09/27 02:28:11;;;;;;;;;;;;;;;14.24;100.00;99218.31;10582759;28;19932;-68
2022/09/27 02:33:16;;;;;;;;;;;;;;;14.21;100.00;99220.19;10582571;28;20284;-77
2022/09/27 02:38:20;;;;;;;;;;;;;;;14.24;100.00;99222.66;10582350;28;19980;-75
2022/09/27 02:43:24;;;;;;;;;;;;;;;14.23;100.00;99220.97;10582561;28;19935;-77
2022/09/27 02:48:32;;;;;;;;;;;;;;;14.16;100.00;99225.63;10581993;28;19928;-73
2022/09/27 02:53:41;;;;;;;;;;;;;;;14.15;100.00;99210.03;10581657;28;20336;-74
2022/09/27 02:58:49;;;;;;;;;;;;;;;14.11;100.00;99208.47;10582376;28;19924;-73
2022/09/27 03:03:55;;;;;;;;;;;;;;;14.06;100.00;99210.41;10580550;28;19930;-74
2022/09/27 03:08:58;;;;;;;;;;;;;;;14.05;100.00;99193.09;10556768;28;19924;-72
2022/09/27 03:14:02;;;;;;;;;;;;;;;14.19;100.00;99190.69;10538960;28;19936;-76
2022/09/27 03:19:13;;;;;;;;;;;;;;;14.23;100.00;99195.75;10538416;28;20031;-74
2022/09/27 03:24:16;;;;;;;;;;;;;;;14.20;100.00;99195.88;10538799;28;19934;-74
2022/09/27 03:29:20;;;;;;;;;;;;;;;14.13;100.00;99196.19;10538714;28;20353;-72
2022/09/27 03:34:24;;;;;;;;;;;;;;;14.13;100.00;99193.59;10538266;28;19924;-75
2022/09/27 03:39:27;;;;;;;;;;;;;;;14.12;100.00;99191.88;10539543;28;19934;-67
2022/09/27 03:44:31;;;;;;;;;;;;;;;14.07;100.00;99176.44;10539405;28;20379;-71
2022/09/27 03:49:36;;;;;;;;;;;;;;;14.05;100.00;99174.81;10538207;28;19928;-69
2022/09/27 03:54:38;;;;;;;;;;;;;;;14.10;100.00;99168.47;10537356;28;19954;-74
2022/09/27 03:59:42;;;;;;;;;;;;;;;14.18;100.00;99152.50;10540825;28;20028;-74
2022/09/27 04:04:46;;;;;;;;;;;;;;;14.25;100.00;99156.53;10543156;28;20003;-74
2022/09/27 04:09:49;;;;;;;;;;;;;;;14.24;100.00;99146.97;10543159;28;20392;-73
2022/09/27 04:14:54;;;;;;;;;;;;;;;14.19;100.00;99149.81;10542851;28;19924;-72
2022/09/27 04:19:58;;;;;;;;;;;;;;;14.14;100.00;99153.53;10542640;28;20018;-73
2022/09/27 04:25:01;;;;;;;;;;;;;;;14.07;100.00;99145.13;10542745;28;20388;-76
2022/09/27 04:30:05;;;;;;;;;;;;;;;14.12;100.00;99147.53;10543195;28;19935;-75
2022/09/27 04:40:33;;;;;;;;;;;;;;;14.13;100.00;99144.00;10542455;28;20023;-74
2022/09/27 04:45:36;;;;;;;;;;;;;;;14.00;100.00;99154.13;10542804;28;20348;-76
2022/09/27 04:50:41;;;;;;;;;;;;;;;14.06;100.00;99153.03;10542209;28;19924;-73
2022/09/27 04:55:45;;;;;;;;;;;;;;;14.06;100.00;99153.03;10541989;28;20371;-73
2022/09/27 05:00:49;;;;;;;;;;;;;;;13.98;100.00;99155.94;10542015;28;19924;-71
2022/09/27 05:05:53;;;;;;;;;;;;;;;13.88;100.00;99155.50;10541717;28;19935;-74
2022/09/27 05:10:56;;;;;;;;;;;;;;;13.99;100.00;99156.81;10541840;28;19950;-72
2022/09/27 05:16:01;;;;;;;;;;;;;;;13.88;100.00;99165.94;10541329;28;20363;-73
2022/09/27 05:21:06;;;;;;;;;;;;;;;13.88;100.00;99155.50;10541603;28;19924;-72
2022/09/27 05:26:10;;;;;;;;;;;;;;;13.88;100.00;99152.91;10546398;28;20007;-73
2022/09/27 05:31:13;;;;;;;;;;;;;;;13.91;100.00;99155.38;10548963;28;19932;-73
2022/09/27 05:36:18;;;;;;;;;;;;;;;13.80;100.00;99148.94;10193685;28;10000187;-75
2022/09/27 05:41:21;;;;;;;;;;;;;;;13.93;100.00;99149.25;10538512;28;19928;-78
2022/09/27 05:46:24;;;;;;;;;;;;;;;13.97;100.00;99143.84;10542519;28;19928;-76
2022/09/27 05:51:28;;;;;;;;;;;;;;;13.94;100.00;99136.16;10542573;28;20022;-77
2022/09/27 05:56:32;;;;;;;;;;;;;;;13.96;100.00;99139.50;10541956;28;19924;-75
2022/09/27 06:01:34;;;;;;;;;;;;;;;13.99;100.00;99136.78;10545847;28;20316;-79
2022/09/27 06:06:39;;;;;;;;;;;;;;;14.00;100.00;99148.06;10547397;28;20397;-75
2022/09/27 06:11:44;;;;;;;;;;;;;;;13.86;100.00;99156.47;10547322;28;19924;-76
2022/09/27 06:16:47;;;;;;;;;;;;;;;13.71;100.00;99149.31;10546914;28;19935;-76
2022/09/27 06:21:53;;;;;;;;;;;;;;;13.61;100.00;99156.69;10194198;28;10000139;-75
2022/09/27 06:26:57;;;;;;;;;;;;;;;13.75;100.00;99148.28;10541056;28;19928;-75
2022/09/27 06:32:00;;;;;;;;;;;;;;;13.72;100.00;99159.66;10540489;28;20006;-75
2022/09/27 06:37:04;;;;;;;;;;;;;;;13.73;100.00;99153.56;10540228;28;19963;-75
2022/09/27 06:42:09;;;;;;;;;;;;;;;13.77;100.00;99155.09;10540621;28;20026;-70
2022/09/27 06:47:13;;;;;;;;;;;;;;;13.64;100.00;99153.94;10539669;28;19934;-70
2022/09/27 06:52:17;;;;;;;;;;;;;;;13.61;100.00;99154.06;10539630;28;19928;-70
2022/09/27 07:02:39;;;;;;;;;;;;;;;13.90;100.00;99142.41;10521381;28;19936;-75
2022/09/27 07:07:44;;;;;;;;;;;;;;;14.03;100.00;99117.47;10539157;28;19935;-80
2022/09/27 07:12:47;;;;;;;;;;;;;;;14.12;100.00;99130.13;10539313;28;19924;-76
2022/09/27 07:17:56;;;;;;;;;;;;;;;14.03;100.00;99148.78;10539196;28;20352;-75
2022/09/27 07:23:00;;;;;;;;;;;;;;;13.94;100.00;99167.44;10540440;28;19996;-75
2022/09/27 07:28:04;;;;;;;;;;;;;;;13.99;100.00;99167.25;10540191;28;20052;-77
2022/09/27 07:33:08;;;;;;;;;;;;;;;13.96;100.00;99156.94;10538326;28;20336;-75
2022/09/27 07:38:12;;;;;;;;;;;;;;;13.98;100.00;99170.78;10537809;28;20344;-77
2022/09/27 07:43:15;;;;;;;;;;;;;;;13.94;100.00;99160.44;10537789;28;19932;-75
2022/09/27 07:48:19;;;;;;;;;;;;;;;14.06;100.00;99173.91;10537621;28;20031;-76
2022/09/27 07:53:23;;;;;;;;;;;;;;;14.04;100.00;99166.13;10538257;28;20321;-76
2022/09/27 07:58:26;;;;;;;;;;;;;;;14.03;100.00;99168.81;10537609;28;20046;-75
2022/09/27 08:03:30;;;;;;;;;;;;;;;14.08;100.00;99149.41;10536985;28;19930;-73
2022/09/27 08:08:34;;;;;;;;;;;;;;;14.21;100.00;99145.38;10537527;28;19928;-77
2022/09/27 08:13:38;;;;;;;;;;;;;;;14.25;100.00;99144.34;10537256;28;19978;-75
2022/09/27 08:18:41;;;;;;;;;;;;;;;14.33;100.00;99150.09;10536802;28;19928;-76
2022/09/27 08:23:45;;;;;;;;;;;;;;;14.40;100.00;99142.81;10552744;28;19973;-76
2022/09/27 08:28:48;;;;;;;;;;;;;;;14.43;100.00;99140.91;10536975;28;20003;-77
2022/09/27 08:33:52;;;;;;;;;;;;;;;14.48;100.00;99144.16;10536456;28;20582;-77
2022/09/27 08:38:58;;;;;;;;;;;;;;;14.49;100.00;99152.84;10536768;28;20256;-78
2022/09/27 08:44:06;;;;;;;;;;;;;;;14.43;100.00;99159.19;10537778;28;20019;-77
2022/09/27 08:49:12;;;;;;;;;;;;;;;14.38;100.00;99155.09;10539055;28;19968;-77
2022/09/27 08:54:20;;;;;;;;;;;;;;;14.37;100.00;99166.44;10537541;28;20363;-76
2022/09/27 08:59:25;;;;;;;;;;;;;;;14.43;100.00;99169.63;10538415;28;19924;-77
2022/09/27 09:04:32;;;;;;;;;;;;;;;14.33;100.00;99164.88;10544077;28;19928;-77
2022/09/27 09:09:40;;;;;;;;;;;;;;;14.40;100.00;99163.69;10544138;28;19928;-76
2022/09/27 09:14:50;;;;;;;;;;;;;;;14.38;100.00;99161.16;10544611;28;20027;-77
2022/09/27 09:20:16;;;;;;;;;;;;;;;14.51;100.00;99156.25;10544106;28;20671;-78
2022/09/27 09:25:28;;;;;;;;;;;;;;;14.58;100.00;99152.44;10543706;28;19968;-75
2022/09/27 09:30:35;;;;;;;;;;;;;;;14.64;100.00;99145.16;10570886;28;20007;-78
2022/09/27 09:35:41;;;;;;;;;;;;;;;14.73;100.00;99144.75;10586300;28;19928;-77
2022/09/27 09:40:48;;;;;;;;;;;;;;;14.83;100.00;99140.78;10585564;28;19927;-77
2022/09/27 09:45:54;;;;;;;;;;;;;;;14.91;100.00;99128.19;10584437;28;20371;-79
2022/09/27 09:51:00;;;;;;;;;;;;;;;15.12;100.00;99122.91;10585016;28;19934;-75
2022/09/27 09:56:07;;;;;;;;;;;;;;;15.25;100.00;99116.13;10586112;28;19924;-79
2022/09/27 10:01:14;;;;;;;;;;;;;;;15.39;100.00;99124.16;10584158;28;20018;-77
2022/09/27 10:06:17;;;;;;;;;;;;;;;15.32;100.00;99123.63;10584358;28;19963;-79
2022/09/27 10:11:24;;;;;;;;;;;;;;;15.14;100.00;99123.63;10584064;28;19931;-77
2022/09/27 10:16:28;;;;;;;;;;;;;;;15.19;100.00;99127.72;10585086;28;20014;-78
2022/09/27 10:21:33;;;;;;;;;;;;;;;15.14;100.00;99127.09;10585263;28;19938;-76
2022/09/27 10:26:39;;;;;;;;;;;;;;;15.04;100.00;99123.25;10542502;28;19950;-79
2022/09/27 10:31:46;;;;;;;;;;;;;;;15.13;100.00;99109.75;10540191;28;19950;-76
2022/09/27 10:37:02;;;;;;;;;;;;;;;15.18;100.00;99105.13;10540076;28;20022;-81
2022/09/27 10:42:20;;;;;;;;;;;;;;;15.17;100.00;99097.38;10540339;28;20017;-78
2022/09/27 10:47:25;;;;;;;;;;;;;;;15.22;100.00;99096.22;10540225;28;20002;-79
2022/09/27 10:52:29;;;;;;;;;;;;;;;15.28;100.00;99088.06;10540323;28;19959;-79
2022/09/27 10:57:33;;;;;;;;;;;;;;;15.28;100.00;99089.84;10539983;28;19982;-77
2022/09/27 11:02:38;;;;;;;;;;;;;;;15.29;100.00;99089.75;10540174;28;19934;-78
2022/09/27 11:07:48;;;;;;;;;;;;;;;15.15;100.00;99081.78;10539442;28;20329;-76
2022/09/27 11:13:06;;;;;;;;;;;;;;;15.16;100.00;99079.97;10538872;28;20507;-82
2022/09/27 11:18:17;;;;;;;;;;;;;;;15.25;100.00;99067.31;10539970;28;19967;-76
2022/09/27 11:23:28;;;;;;;;;;;;;;;15.36;100.00;99059.78;10552507;28;19928;-80
2022/09/27 11:28:39;;;;;;;;;;;;;;;15.37;100.00;99053.63;10580842;28;19928;-78
2022/09/27 11:33:51;;;;;;;;;;;;;;;15.47;100.00;99048.81;10582324;28;19923;-76
2022/09/27 11:39:01;;;;;;;;;;;;;;;15.48;100.00;99053.97;10581008;28;19924;-79
2022/09/27 11:44:16;;;;;;;;;;;;;;;15.53;100.00;99041.50;10581801;28;20021;-79
2022/09/27 11:49:26;;;;;;;;;;;;;;;15.53;100.00;99045.91;10581417;28;20315;-78
2022/09/27 11:54:37;;;;;;;;;;;;;;;15.53;100.00;99036.25;10579961;28;19928;-77
2022/09/27 11:59:49;;;;;;;;;;;;;;;15.61;100.00;99043.72;10579341;28;19927;-76
2022/09/27 12:05:01;;;;;;;;;;;;;;;15.65;100.00;99045.28;10581595;28;19935;-71
2022/09/27 12:10:09;;;;;;;;;;;;;;;15.66;100.00;99049.56;10584545;28;20373;-80
2022/09/27 12:15:15;;;;;;;;;;;;;;;15.76;100.00;99041.16;10584616;28;20015;-76
2022/09/27 12:20:22;;;;;;;;;;;;;;;15.74;100.00;99040.41;10584338;28;20335;-76
2022/09/27 12:25:28;;;;;;;;;;;;;;;15.73;100.00;99028.25;10585554;28;20023;-77
2022/09/27 12:30:34;;;;;;;;;;;;;;;15.88;100.00;99024.81;10584447;28;20284;-78
2022/09/27 12:35:44;;;;;;;;;;;;;;;16.06;100.00;99015.16;10590611;28;20006;-73
2022/09/27 12:40:49;;;;;;;;;;;;;;;16.08;100.00;99016.75;10593355;28;19924;-74
2022/09/27 12:45:58;;;;;;;;;;;;;;;16.01;100.00;99012.75;10592516;28;19924;-77
2022/09/27 12:51:06;;;;;;;;;;;;;;;16.06;100.00;98997.69;10592864;28;20018;-75
2022/09/27 12:56:20;;;;;;;;;;;;;;;16.23;100.00;99002.00;10592016;28;20313;-73
2022/09/27 13:01:31;;;;;;;;;;;;;;;16.44;100.00;99003.44;10592312;28;19928;-72
2022/09/27 13:06:46;;;;;;;;;;;;;;;16.32;100.00;98996.25;10592301;28;20034;-73
2022/09/27 13:11:56;;;;;;;;;;;;;;;16.31;100.00;98981.47;10591853;28;20014;-75
2022/09/27 13:16:59;;;;;;;;;;;;;;;16.29;99.88;98991.16;10592149;28;19924;-77
2022/09/27 13:22:04;;;;;;;;;;;;;;;16.33;99.29;98987.47;10552410;28;20011;-76
2022/09/27 13:27:21;;;;;;;;;;;;;;;16.41;98.61;98966.91;10544859;28;19924;-69
2022/09/27 13:32:27;;;;;;;;;;;;;;;16.47;98.71;98965.78;10543918;28;19951;-69
2022/09/27 13:37:44;;;;;;;;;;;;;;;16.75;99.00;98961.50;10542132;28;20010;-67
2022/09/27 13:42:54;;;;;;;;;;;;;;;16.61;99.20;98958.84;10541650;28;20398;-71
2022/09/27 13:47:59;;;;;;;;;;;;;;;16.59;98.85;98952.84;10541348;28;19928;-72
2022/09/27 13:53:06;;;;;;;;;;;;;;;16.59;98.74;98946.75;10541634;28;19928;-70
2022/09/27 13:58:15;;;;;;;;;;;;;;;16.61;98.87;98940.50;10542021;28;19928;-70
2022/09/27 14:03:22;;;;;;;;;;;;;;;16.74;97.45;98940.66;10541342;28;20014;-69
2022/09/27 14:08:29;;;;;;;;;;;;;;;16.77;96.28;98930.84;10541244;28;19939;-77
2022/09/27 14:13:32;;;;;;;;;;;;;;;16.83;96.21;98926.97;10541116;28;19983;-77
2022/09/27 14:18:36;;;;;;;;;;;;;;;16.86;97.11;98921.59;10190236;28;10000008;-79
2022/09/27 14:23:40;;;;;;;;;;;;;;;16.84;96.01;98920.84;10540736;28;19931;-78
2022/09/27 14:28:44;;;;;;;;;;;;;;;16.72;95.41;98918.91;10540852;28;20019;-79
2022/09/27 14:33:47;;;;;;;;;;;;;;;16.72;95.88;98919.75;10540918;28;20029;-77
2022/09/27 14:38:51;;;;;;;;;;;;;;;16.64;95.74;98915.88;10540186;28;19928;-77
2022/09/27 14:43:55;;;;;;;;;;;;;;;16.68;96.44;98914.78;10540355;28;19924;-79
2022/09/27 14:48:58;;;;;;;;;;;;;;;16.53;96.83;98918.28;10541741;28;19928;-78
2022/09/27 14:54:04;;;;;;;;;;;;;;;16.51;96.37;98917.53;10540997;28;20323;-78
2022/09/27 14:59:10;;;;;;;;;;;;;;;16.47;96.77;98918.63;10539110;28;20477;-76
2022/09/27 15:04:14;;;;;;;;;;;;;;;16.50;97.37;98915.84;10541043;28;20019;-80
2022/09/27 15:09:20;;;;;;;;;;;;;;;16.50;97.83;98915.84;10522997;28;19923;-79
2022/09/27 15:14:23;;;;;;;;;;;;;;;16.41;98.48;98919.78;10539629;28;20384;-78
2022/09/27 15:19:27;;;;;;;;;;;;;;;16.37;98.67;98907.81;10532790;28;19927;-78
2022/09/27 15:24:39;;;;;;;;;;;;;;;16.35;98.81;98921.91;10581225;28;20339;-79
2022/09/27 15:29:47;;;;;;;;;;;;;;;16.31;98.93;98921.22;10581859;28;19943;-79
2022/09/27 15:34:50;;;;;;;;;;;;;;;16.27;99.51;98916.25;10581349;28;19924;-78
2022/09/27 15:39:54;;;;;;;;;;;;;;;16.26;100.00;98912.78;10541189;28;20026;-80
2022/09/27 15:44:57;;;;;;;;;;;;;;;16.27;100.00;98900.56;10538768;28;19932;-77
2022/09/27 15:50:22;;;;;;;;;;;;;;;16.20;100.00;98903.50;10538265;28;20023;-81
2022/09/27 15:55:28;;;;;;;;;;;;;;;16.19;100.00;98893.97;10522248;28;19924;-79
2022/09/27 16:00:31;;;;;;;;;;;;;;;16.15;100.00;98889.00;10496467;28;19936;-74
2022/09/27 16:05:35;;;;;;;;;;;;;;;16.09;100.00;98884.09;10495608;28;19964;-75
2022/09/27 16:10:41;;;;;;;;;;;;;;;16.06;100.00;98885.13;10495781;28;19973;-74
2022/09/27 16:15:45;;;;;;;;;;;;;;;16.02;100.00;98880.13;10497083;28;20014;-79
2022/09/27 16:20:48;;;;;;;;;;;;;;;15.99;100.00;98891.63;10522351;28;19982;-78
2022/09/27 16:25:53;;;;;;;;;;;;;;;15.99;100.00;98890.78;10537113;28;20046;-75
2022/09/27 16:31:00;;;;;;;;;;;;;;;15.84;100.00;98894.25;10536969;28;20057;-69
2022/09/27 16:36:05;;;;;;;;;;;;;;;15.74;100.00;98898.28;10536683;28;19931;-70
2022/09/27 16:41:10;;;;;;;;;;;;;;;15.64;100.00;98907.53;10536797;28;20010;-72
2022/09/27 16:46:17;;;;;;;;;;;;;;;15.56;100.00;98904.50;10535959;28;20289;-70
2022/09/27 16:56:43;;;;;;;;;;;;;;;15.45;100.00;98899.00;10536337;28;19934;-69
2022/09/27 17:01:47;;;;;;;;;;;;;;;15.41;100.00;98890.47;10535769;28;19993;-69
2022/09/27 17:06:50;;;;;;;;;;;;;;;15.38;100.00;98901.06;10535693;28;19935;-71
2022/09/27 17:11:55;;;;;;;;;;;;;;;15.30;100.00;98898.00;10535834;28;19928;-70
2022/09/27 17:16:58;;;;;;;;;;;;;;;15.29;100.00;98901.53;10536051;28;19984;-70
2022/09/27 17:22:01;;;;;;;;;;;;;;;15.22;100.00;98905.38;10573845;28;19928;-72
2022/09/27 17:27:05;;;;;;;;;;;;;;;15.21;100.00;98914.16;10585918;28;19938;-76
2022/09/27 17:32:08;;;;;;;;;;;;;;;15.25;100.00;98913.09;10585941;28;19928;-77
2022/09/27 17:37:11;;;;;;;;;;;;;;;15.19;100.00;98915.16;10585339;28;19923;-74
2022/09/27 17:42:17;;;;;;;;;;;;;;;15.06;100.00;98912.34;10586593;28;19927;-75
2022/09/27 17:52:41;;;;;;;;;;;;;;;14.95;100.00;98904.22;10585040;28;20506;-73
2022/09/27 17:57:47;;;;;;;;;;;;;;;14.78;100.00;98906.84;10584673;28;20324;-74
2022/09/27 18:02:51;;;;;;;;;;;;;;;14.74;100.00;98908.75;10585072;28;19934;-73
2022/09/27 18:07:54;;;;;;;;;;;;;;;14.70;100.00;98896.75;10584072;28;19927;-76
2022/09/27 18:12:59;;;;;;;;;;;;;;;14.67;100.00;98894.31;10577269;28;19928;-70
2022/09/27 18:18:03;;;;;;;;;;;;;;;14.47;100.00;98894.47;10540575;28;19927;-69
2022/09/27 18:23:07;;;;;;;;;;;;;;;14.35;100.00;98900.28;10583189;28;19982;-70
2022/09/27 18:28:11;;;;;;;;;;;;;;;14.35;100.00;98908.09;10567299;28;20263;-67
2022/09/27 18:33:14;;;;;;;;;;;;;;;14.24;100.00;98905.13;10540217;28;20361;-69
2022/09/27 18:38:18;;;;;;;;;;;;;;;14.36;100.00;98909.78;10539828;28;19932;-72
2022/09/27 18:43:22;;;;;;;;;;;;;;;14.46;100.00;98903.19;10540436;28;20019;-70
2022/09/27 18:48:26;;;;;;;;;;;;;;;14.51;100.00;98895.97;10540483;28;19928;-71
2022/09/27 18:53:30;;;;;;;;;;;;;;;14.50;100.00;98899.53;10540301;28;20415;-71
2022/09/27 18:58:35;;;;;;;;;;;;;;;14.53;100.00;98904.59;10539632;28;19951;-71
2022/09/27 19:03:38;;;;;;;;;;;;;;;14.50;100.00;98909.97;10540356;28;20051;-75
2022/09/27 19:08:41;;;;;;;;;;;;;;;14.50;100.00;98902.13;10541519;28;20010;-70
2022/09/27 19:13:50;;;;;;;;;;;;;;;14.47;100.00;98915.34;10541630;28;20047;-72
2022/09/27 19:18:53;;;;;;;;;;;;;;;14.50;100.00;98904.75;10544153;28;19955;-70
2022/09/27 19:23:57;;;;;;;;;;;;;;;14.49;100.00;98897.00;10544742;28;20399;-72
2022/09/27 19:29:01;;;;;;;;;;;;;;;14.60;100.00;98895.53;10544865;28;20040;-72
2022/09/27 19:34:04;;;;;;;;;;;;;;;14.57;100.00;98882.63;10541147;28;19924;-74
2022/09/27 19:39:07;;;;;;;;;;;;;;;14.56;100.00;98877.50;10540403;28;20030;-73
2022/09/27 19:44:12;;;;;;;;;;;;;;;14.57;100.00;98872.19;10539543;28;19934;-72
2022/09/27 19:49:17;;;;;;;;;;;;;;;14.57;100.00;98868.72;10543662;28;20023;-73
2022/09/27 19:54:21;;;;;;;;;;;;;;;14.54;100.00;98874.09;10543734;28;19924;-75
2022/09/27 19:59:25;;;;;;;;;;;;;;;14.44;100.00;98860.69;10543501;28;20019;-75
2022/09/27 20:04:28;;;;;;;;;;;;;;;14.59;100.00;98853.84;10543500;28;19924;-74
2022/09/27 20:09:32;;;;;;;;;;;;;;;14.53;100.00;98854.97;10543226;28;20370;-74
2022/09/27 20:14:39;;;;;;;;;;;;;;;14.58;100.00;98852.16;10543138;28;19924;-71
2022/09/27 20:19:42;;;;;;;;;;;;;;;14.56;100.00;98843.56;10542994;28;20019;-73
2022/09/27 20:24:45;;;;;;;;;;;;;;;14.64;100.00;98839.63;10543013;28;19938;-77
2022/09/27 20:29:50;;;;;;;;;;;;;;;14.60;100.00;98832.84;10542922;28;19923;-72
2022/09/27 20:34:53;;;;;;;;;;;;;;;14.62;100.00;98836.25;10542740;28;20252;-75
2022/09/27 20:39:56;;;;;;;;;;;;;;;14.60;100.00;98845.09;10542588;28;20356;-73
2022/09/27 20:45:01;;;;;;;;;;;;;;;14.65;100.00;98845.69;10542506;28;19955;-73
2022/09/27 20:50:04;;;;;;;;;;;;;;;14.60;100.00;98845.09;10543064;28;19924;-74
2022/09/27 20:55:08;;;;;;;;;;;;;;;14.44;100.00;98846.78;10545643;28;20015;-74
2022/09/27 21:00:13;;;;;;;;;;;;;;;14.38;100.00;98836.63;10550517;28;19934;-72
2022/09/27 21:05:16;;;;;;;;;;;;;;;14.24;100.00;98824.22;10550334;28;20023;-74
2022/09/27 21:10:19;;;;;;;;;;;;;;;14.31;100.00;98816.97;10550092;28;20317;-74
2022/09/27 21:15:24;;;;;;;;;;;;;;;14.36;100.00;98814.97;10549922;28;20023;-74
2022/09/27 21:20:27;;;;;;;;;;;;;;;14.42;100.00;98812.91;10197268;28;10000006;-71
2022/09/27 21:25:30;;;;;;;;;;;;;;;14.45;100.00;98817.13;10545794;28;20022;-74
2022/09/27 21:30:36;;;;;;;;;;;;;;;14.42;100.00;98817.28;10544165;28;19936;-75
2022/09/27 21:35:39;;;;;;;;;;;;;;;14.40;100.00;98816.50;10543201;28;19942;-73
2022/09/27 21:40:42;;;;;;;;;;;;;;;14.35;100.00;98823.72;10542814;28;20418;-75
2022/09/27 21:45:47;;;;;;;;;;;;;;;14.16;100.00;98838.56;10542670;28;19928;-73
2022/09/27 21:50:50;;;;;;;;;;;;;;;14.09;100.00;98816.31;10542579;28;19934;-75
2022/09/27 21:55:53;;;;;;;;;;;;;;;14.10;100.00;98813.63;10543479;28;19967;-75
2022/09/27 22:00:58;;;;;;;;;;;;;;;14.14;100.00;98809.09;10542038;28;20371;-76
2022/09/27 22:06:01;;;;;;;;;;;;;;;14.17;100.00;98801.97;10541442;28;19924;-74
2022/09/27 22:11:05;;;;;;;;;;;;;;;14.21;100.00;98792.22;10542258;28;19938;-74
2022/09/27 22:16:10;;;;;;;;;;;;;;;14.29;100.00;98796.16;10541402;28;20023;-73
2022/09/27 22:21:15;;;;;;;;;;;;;;;14.34;100.00;98788.13;10550769;28;20610;-75
2022/09/27 22:26:19;;;;;;;;;;;;;;;14.30;100.00;98781.34;10583835;28;19942;-73
2022/09/27 22:31:23;;;;;;;;;;;;;;;14.31;100.00;98783.88;10583143;28;20125;-75
2022/09/27 22:36:27;;;;;;;;;;;;;;;14.26;100.00;98780.66;10582904;28;19934;-76
2022/09/27 22:41:31;;;;;;;;;;;;;;;14.29;100.00;98775.28;10582657;28;20275;-75
2022/09/27 22:46:35;;;;;;;;;;;;;;;14.35;100.00;98768.91;10582409;28;20015;-74
2022/09/27 22:51:38;;;;;;;;;;;;;;;14.39;100.00;98762.63;10582849;28;20341;-74
2022/09/27 22:56:41;;;;;;;;;;;;;;;14.35;100.00;98754.13;10583489;28;19928;-76
2022/09/27 23:01:45;;;;;;;;;;;;;;;14.34;100.00;98751.59;10583783;28;19924;-74
2022/09/27 23:06:49;;;;;;;;;;;;;;;14.30;100.00;98744.81;10583518;28;19923;-75
2022/09/27 23:11:52;;;;;;;;;;;;;;;14.30;100.00;98739.59;10581707;28;19984;-74
2022/09/27 23:16:57;;;;;;;;;;;;;;;14.32;100.00;98732.53;10580267;28;20267;-73
2022/09/27 23:22:00;;;;;;;;;;;;;;;14.34;100.00;98735.94;10564948;28;19960;-75
2022/09/27 23:32:25;;;;;;;;;;;;;;;14.24;100.00;98734.66;10538477;28;19928;-72
